Mexico City, DIF, Mexico
Current Conditions -  °F | °C
As of 7:43 PM on Saturday 25 Oct 2014 (Local Time) from MMMX Reporting Station
Clear Clear  
Wind Chill: 66°   Ceiling: Unl
Heat Index: 66°   Visibility: 12mi
Dew Point: 39°   Wind: 17mph
Humidity: 37%   Direction: 20°NNE
Pressure: 30.32"   Gusts: NA
Location:  19.43°N, 99.14°W
Report Text: MMMX 260043Z 02015KT 12SM SKC 19/04 A3032 NOSIG RMK HZY CI
Loading
Personal Weather Stations






























Interactive Weather Map
Tropical Storm Tracking
New forecast layout! Learn more

10-Day Weather Forecast

Advertisements
Track Severe Weather on mobile